首页
METAR-TAF:

METAR-TAF

机场 :

坎贝尔河, 不列颠哥伦比亚, 加拿大

纬度: 49-57N, 经度: 125-16W, 海拔: 106米

当前天气观测

该预报发布于5小时和51分钟前的05:00 UTC
静风
温度 8°C
湿度 93%
气压 1013 hPa
能見度: 3.2公里
多云层高于400英尺
阴天层高于800英尺
小雨, 轻雾

METAR: CYBL 150500Z 00000KT 2SM -RA BR BKN004 OVC008 08/07 A2991 RMK SF7SF1 LAST STFD OBS / NEXT 151400 UTC SLP133

时间: 02:51 (10:51 UTC)

预报

该预报发布于10小时和13分钟前的00:38 UTC
预报有效从15日的 01点(UTC)到 15日的 05点(UTC)
风速10节,风向
能見度: 4.8公里
散云层高于300英尺
阴天层高于2000英尺
小雨, 轻雾
短暂存在
从 15日的 01点(UTC)到 15日的 05点(UTC)
能見度: 1.6公里
多云层高于300英尺
阴天层高于1000英尺
小雨, 轻雾

TAF: CYBL 150038Z 1501/1505 10010KT 3SM -RA BR SCT003 OVC020 TEMPO 1501/1505 1SM -RA BR BKN003 OVC010 RMK NXT FCST WILL BE ISSUED AT 151545Z

超过4000个机场的气象观测和天气预报(METAR&TAF报告)。

可查询的气象台以黄色和红色小点在地图上表示。

将鼠标移到小点上方,可查看气象台名称。

然后点击查看天气观测和预报。

如需切换地图:点击带黑十字的绿色按钮放大地图;点击带横线的绿色按钮缩小地图;或者点击绿色箭头查看邻近地区的地图。


METAR-TAF: